Time;durP1;ratioP1;P1;durP2;ratioP2;P2;SDS_P1;SDS_P2;PMS_P1;PMS_P2;Temp;Humidity;BMP_temperature;BMP_pressure;BME280_temperature;BME280_humidity;BME280_pressure;Samples;Min_cycle;Max_cycle;Signal;HPM_P1;HPM_P2
2021/09/05 20:44:35;;;;;;;2.15;2.05;;;21.20;74.40;;;;;;4135747;27;2153381;-60
2021/09/05 20:46:57;;;;;;;3.05;2.75;;;21.20;75.40;;;;;;4205630;28;20051;-58
2021/09/05 20:49:19;;;;;;;2.95;2.30;;;21.30;75.00;;;;;;4205603;28;20045;-59
2021/09/05 20:51:42;;;;;;;4.05;3.08;;;21.30;74.60;;;;;;4190616;28;20045;-59
2021/09/05 20:54:04;;;;;;;2.80;2.60;;;21.30;74.30;;;;;;4198515;28;20049;-59
2021/09/05 20:56:26;;;;;;;3.97;2.47;;;21.20;74.30;;;;;;4205584;28;20573;-59
2021/09/05 20:58:48;;;;;;;3.15;2.60;;;21.20;74.30;;;;;;4205874;28;20477;-59
2021/09/05 21:01:14;;;;;;;2.90;2.70;;;21.30;74.30;;;;;;4190170;28;20512;-59
2021/09/05 21:03:37;;;;;;;2.60;2.40;;;21.20;74.20;;;;;;4205354;28;20093;-60
2021/09/05 21:05:59;;;;;;;2.80;2.60;;;21.20;74.30;;;;;;4205576;28;20513;-59
2021/09/05 21:08:22;;;;;;;2.88;2.67;;;21.20;74.30;;;;;;4205299;28;20051;-59
2021/09/05 21:10:44;;;;;;;2.72;2.58;;;21.20;74.30;;;;;;4204526;28;20036;-59
2021/09/05 21:13:06;;;;;;;3.00;2.70;;;21.20;74.30;;;;;;4188789;28;20487;-59
2021/09/05 21:15:29;;;;;;;3.22;3.00;;;21.20;74.30;;;;;;4188619;28;20486;-59
2021/09/05 21:17:52;;;;;;;3.75;3.45;;;21.20;74.30;;;;;;4188478;28;20056;-59
2021/09/05 21:20:14;;;;;;;3.40;2.22;;;21.20;74.10;;;;;;4173587;28;20068;-59
2021/09/05 21:22:38;;;;;;;3.60;3.10;;;21.20;74.20;;;;;;4171061;28;20041;-58
2021/09/05 21:25:00;;;;;;;4.25;3.08;;;21.20;74.20;;;;;;4171762;28;20053;-58
2021/09/05 21:27:22;;;;;;;4.88;3.10;;;21.10;74.20;;;;;;4171853;28;20132;-59
2021/09/05 21:29:44;;;;;;;2.60;2.50;;;21.10;74.20;;;;;;4171982;28;20049;-59
2021/09/05 21:32:07;;;;;;;3.17;2.97;;;21.10;74.20;;;;;;4204796;28;20048;-59
2021/09/05 21:34:31;;;;;;;3.85;2.88;;;21.10;74.20;;;;;;4188227;28;20045;-60
2021/09/05 21:36:53;;;;;;;3.10;2.85;;;21.10;74.20;;;;;;4188249;28;20068;-59
2021/09/05 21:39:16;;;;;;;2.83;2.60;;;21.10;74.20;;;;;;4188136;28;20048;-59
2021/09/05 21:41:38;;;;;;;3.40;3.10;;;21.10;74.20;;;;;;4204928;28;20052;-59
2021/09/05 21:44:02;;;;;;;3.90;3.55;;;21.10;74.30;;;;;;4187825;28;20052;-59
2021/09/05 21:46:25;;;;;;;4.10;3.58;;;21.10;74.10;;;;;;4171033;28;20053;-59
2021/09/05 21:48:48;;;;;;;3.90;3.38;;;21.10;74.20;;;;;;4187871;28;20141;-58
2021/09/05 21:51:11;;;;;;;3.97;3.67;;;21.00;74.20;;;;;;4192338;28;20044;-59
2021/09/05 21:53:33;;;;;;;3.15;2.95;;;21.00;74.10;;;;;;4187499;28;20076;-58
2021/09/05 21:55:55;;;;;;;3.75;3.45;;;21.00;74.20;;;;;;4177018;28;20049;-59
2021/09/05 21:58:18;;;;;;;3.90;3.63;;;21.00;74.20;;;;;;4177072;28;20048;-61
2021/09/05 22:00:42;;;;;;;3.70;3.40;;;21.00;74.20;;;;;;4177192;28;20060;-59
2021/09/05 22:03:06;;;;;;;3.65;3.20;;;21.00;74.20;;;;;;4176864;28;20052;-59
2021/09/05 22:05:28;;;;;;;4.03;3.70;;;21.00;74.30;;;;;;4177055;28;20045;-58
2021/09/05 22:07:51;;;;;;;3.65;3.35;;;21.00;74.30;;;;;;4176755;28;20106;-59
2021/09/05 22:10:13;;;;;;;3.80;3.53;;;21.00;74.30;;;;;;4181051;28;20053;-59
2021/09/05 22:12:35;;;;;;;3.88;3.53;;;20.90;74.40;;;;;;4193128;28;20051;-59
2021/09/05 22:14:58;;;;;;;3.47;3.17;;;20.90;74.50;;;;;;4193214;28;20048;-59
2021/09/05 22:17:20;;;;;;;3.17;2.75;;;20.90;74.50;;;;;;4191762;28;20529;-59
2021/09/05 22:19:42;;;;;;;3.72;3.42;;;20.90;74.60;;;;;;4179265;28;20072;-58
2021/09/05 22:22:05;;;;;;;3.05;2.85;;;20.90;74.60;;;;;;4176064;28;20041;-59
2021/09/05 22:24:29;;;;;;;2.63;2.47;;;20.90;74.60;;;;;;4176550;28;20048;-59
2021/09/05 22:26:51;;;;;;;2.58;2.38;;;20.90;74.50;;;;;;4176431;28;20084;-59
2021/09/05 22:29:13;;;;;;;2.90;2.70;;;20.80;74.60;;;;;;4176696;28;20053;-58
2021/09/05 22:31:36;;;;;;;3.67;2.72;;;20.90;74.70;;;;;;4184118;28;20779;-59
2021/09/05 22:33:58;;;;;;;3.10;2.90;;;20.80;74.70;;;;;;4193160;28;20465;-59
2021/09/05 22:36:20;;;;;;;3.60;3.30;;;20.80;74.70;;;;;;4192791;28;20044;-59
2021/09/05 22:38:42;;;;;;;4.10;2.90;;;20.90;74.80;;;;;;4192827;28;20044;-60
2021/09/05 22:41:06;;;;;;;3.00;2.85;;;20.80;74.80;;;;;;4192855;28;20414;-58
2021/09/05 22:43:28;;;;;;;3.25;2.95;;;20.80;74.70;;;;;;4205383;28;20127;-59
2021/09/05 22:45:51;;;;;;;3.72;2.83;;;20.80;74.90;;;;;;4209119;28;22648;-59
2021/09/05 22:48:12;;;;;;;3.22;2.88;;;20.80;74.90;;;;;;4208942;28;20047;-59
2021/09/05 22:50:35;;;;;;;3.35;3.00;;;20.80;74.60;;;;;;4209465;28;20468;-59
2021/09/05 22:52:57;;;;;;;3.35;3.15;;;20.80;74.60;;;;;;4209297;28;20043;-59
2021/09/05 22:55:19;;;;;;;3.40;3.10;;;20.80;74.60;;;;;;4208897;28;20074;-59
2021/09/05 22:57:43;;;;;;;3.30;3.00;;;20.70;74.60;;;;;;4175802;28;20065;-60
2021/09/05 23:00:08;;;;;;;3.50;3.30;;;20.80;74.40;;;;;;4175972;28;20056;-59
2021/09/05 23:02:30;;;;;;;3.05;2.85;;;20.70;74.20;;;;;;4176152;28;20048;-59
2021/09/05 23:04:52;;;;;;;4.07;3.72;;;20.70;74.30;;;;;;4159339;28;20135;-58
2021/09/05 23:07:15;;;;;;;3.65;3.35;;;20.70;74.40;;;;;;4158460;28;20049;-59
2021/09/05 23:09:37;;;;;;;3.80;3.50;;;20.70;74.50;;;;;;4175876;28;20053;-59
2021/09/05 23:11:59;;;;;;;3.30;3.10;;;20.70;74.70;;;;;;4175916;28;20053;-59
2021/09/05 23:14:23;;;;;;;3.53;3.33;;;20.70;74.80;;;;;;4175428;28;20135;-60
2021/09/05 23:16:45;;;;;;;3.22;3.03;;;20.70;74.60;;;;;;4170923;28;20076;-59
2021/09/05 23:19:07;;;;;;;3.15;3.00;;;20.70;75.00;;;;;;4177037;28;20041;-59
2021/09/05 23:21:29;;;;;;;3.60;3.33;;;20.70;74.90;;;;;;4190674;28;20514;-59
2021/09/05 23:23:52;;;;;;;3.53;3.22;;;20.70;74.90;;;;;;4192315;28;20482;-59
2021/09/05 23:26:14;;;;;;;3.60;3.00;;;20.60;74.90;;;;;;4192203;28;20044;-59
2021/09/05 23:28:36;;;;;;;3.13;2.92;;;20.60;74.90;;;;;;4192100;28;20083;-59
2021/09/05 23:30:59;;;;;;;3.33;3.10;;;20.60;74.90;;;;;;4192040;28;20129;-58
2021/09/05 23:33:21;;;;;;;3.13;2.92;;;20.60;74.90;;;;;;4191900;28;20056;-58
2021/09/05 23:35:44;;;;;;;3.10;2.78;;;20.60;75.10;;;;;;4186161;28;20599;-58
2021/09/05 23:38:06;;;;;;;3.28;2.97;;;20.60;75.10;;;;;;4176055;28;20049;-57
2021/09/05 23:40:28;;;;;;;3.47;2.85;;;20.60;75.10;;;;;;4192012;28;20558;-59
2021/09/05 23:42:50;;;;;;;2.92;2.65;;;20.60;75.10;;;;;;4199410;28;20051;-59
2021/09/05 23:45:13;;;;;;;3.40;3.10;;;20.60;75.00;;;;;;4208324;28;20058;-57
2021/09/05 23:47:36;;;;;;;5.60;3.33;;;20.60;74.90;;;;;;4208427;28;20048;-59
2021/09/05 23:49:58;;;;;;;3.72;3.13;;;20.60;74.80;;;;;;4208402;28;20074;-58
2021/09/05 23:52:20;;;;;;;2.97;2.78;;;20.60;75.00;;;;;;4208626;28;20047;-59
2021/09/05 23:54:43;;;;;;;3.30;3.00;;;20.50;75.00;;;;;;4208172;28;20036;-59
2021/09/05 23:57:05;;;;;;;3.30;3.00;;;20.60;75.00;;;;;;4174612;28;20051;-59
2021/09/05 23:59:28;;;;;;;3.25;2.90;;;20.50;74.90;;;;;;4175121;28;20041;-58
